Terminal Aerodrome Forecast
Issued by NWS

Home | Current Version | Previous Version | Text Only | Print | Product List | Glossary Off
Versions: 1 2 3 4 5 6 7 8 9 10 11 12 13 14 15 16 17 18

694
FTUS45 KGGW 302326
TAFSDY
TAF
KSDY 302326Z 0100/0124 31005KT 6SM -SHSN VCSH OVC016
     FM011400 VRB03KT P6SM OVC010
     FM011800 VRB03KT P6SM OVC015
     FM012100 18004KT P6SM BKN020=

USA.gov is the U.S. government's official web portal to all federal, state and local government web resources and services.